createdAt,value
2019-05-15T00:00:28.894Z,65.82
2019-05-15T00:01:28.578Z,65.61
2019-05-15T00:02:27.978Z,65.69
2019-05-15T00:03:28.781Z,65.09
2019-05-15T00:04:28.105Z,65.09
2019-05-15T00:05:29.178Z,64.65
2019-05-15T00:06:28.544Z,64.68
2019-05-15T00:07:29.397Z,64.89
2019-05-15T00:08:28.766Z,64.78
2019-05-15T00:09:28.657Z,64.65
2019-05-15T00:10:28.751Z,65.37
2019-05-15T00:11:28.781Z,65.37
2019-05-15T00:12:28.423Z,65.27
2019-05-15T00:13:28.255Z,64.99
2019-05-15T00:14:28.842Z,65.20
2019-05-15T00:15:27.937Z,65.61
2019-05-15T00:16:29.096Z,65.72
2019-05-15T00:17:28.255Z,65.20
2019-05-15T00:18:28.124Z,65.09
2019-05-15T00:19:28.443Z,65.20
2019-05-15T00:20:29.329Z,65.09
2019-05-15T00:21:28.838Z,64.78
2019-05-15T00:22:29.025Z,64.89
2019-05-15T00:23:29.189Z,65.20
2019-05-15T00:24:28.795Z,64.99
2019-05-15T00:25:28.287Z,65.20
2019-05-15T00:26:26.943Z,64.99
2019-05-15T00:27:28.511Z,64.99
2019-05-15T00:28:28.010Z,65.20
2019-05-15T00:29:28.935Z,64.92
2019-05-15T00:30:28.911Z,64.68
2019-05-15T00:31:29.007Z,64.89
2019-05-15T00:32:28.292Z,64.78
2019-05-15T00:33:28.611Z,64.48
2019-05-15T00:34:28.574Z,64.48
2019-05-15T00:35:28.663Z,64.27
2019-05-15T00:36:28.652Z,64.48
2019-05-15T00:37:28.872Z,64.58
2019-05-15T00:38:28.032Z,64.58
2019-05-15T00:39:28.426Z,64.58
2019-05-15T00:40:28.839Z,64.37
2019-05-15T00:41:27.884Z,64.71
2019-05-15T00:42:28.451Z,65.02
2019-05-15T00:43:28.962Z,65.33
2019-05-15T00:44:27.997Z,65.02
2019-05-15T00:45:27.857Z,65.23
2019-05-15T00:46:28.908Z,65.44
2019-05-15T00:47:28.639Z,65.23
2019-05-15T00:48:29.034Z,65.54
2019-05-15T00:49:28.852Z,65.64
2019-05-15T00:50:28.657Z,65.95
2019-05-15T00:51:28.496Z,65.75
2019-05-15T00:52:31.082Z,65.44
2019-05-15T00:53:28.328Z,65.64
2019-05-15T00:54:28.218Z,65.67
2019-05-15T00:55:28.436Z,66.06
2019-05-15T00:56:28.440Z,66.19
2019-05-15T00:57:28.332Z,65.88
2019-05-15T00:58:28.274Z,65.85
2019-05-15T00:59:29.741Z,65.44
2019-05-15T01:00:28.198Z,65.44
2019-05-15T01:01:28.641Z,65.95
2019-05-15T01:02:28.543Z,65.85
2019-05-15T01:03:27.934Z,66.19
2019-05-15T01:04:28.042Z,66.19
2019-05-15T01:05:27.993Z,66.29
2019-05-15T01:06:28.452Z,66.50
2019-05-15T01:07:28.167Z,66.29
2019-05-15T01:08:28.469Z,66.39
2019-05-15T01:09:26.462Z,66.84
2019-05-15T01:10:28.158Z,67.22
2019-05-15T01:11:28.369Z,67.46
2019-05-15T01:12:26.430Z,67.67
2019-05-15T01:13:28.129Z,67.25
2019-05-15T01:14:27.837Z,67.05
2019-05-15T01:15:26.376Z,67.05
2019-05-15T01:16:28.105Z,66.91
2019-05-15T01:17:26.374Z,67.46
2019-05-15T01:18:26.348Z,67.15
2019-05-15T01:19:28.609Z,67.77
2019-05-15T01:20:28.527Z,67.77
2019-05-15T01:21:27.869Z,68.08
2019-05-15T01:22:28.542Z,67.88
2019-05-15T01:23:28.202Z,68.19
2019-05-15T01:24:28.321Z,67.98
2019-05-15T01:25:28.044Z,68.70
2019-05-15T01:26:28.241Z,68.70
2019-05-15T01:27:26.242Z,68.74
2019-05-15T01:28:26.272Z,68.94
2019-05-15T01:29:38.478Z,69.15
2019-05-15T01:30:28.634Z,68.84
2019-05-15T01:31:28.378Z,69.56
2019-05-15T01:32:28.290Z,69.46
2019-05-15T01:33:28.221Z,69.15
2019-05-15T01:34:26.165Z,69.46
2019-05-15T01:35:28.565Z,69.56
2019-05-15T01:36:28.579Z,70.60
2019-05-15T01:37:28.147Z,70.94
2019-05-15T01:38:28.017Z,72.32
2019-05-15T01:39:26.129Z,72.94
2019-05-15T01:40:26.133Z,72.74
2019-05-15T01:41:28.049Z,72.74
2019-05-15T01:42:28.000Z,73.08
2019-05-15T01:43:26.064Z,73.39
2019-05-15T01:44:26.054Z,73.39
2019-05-15T01:45:28.481Z,72.88
2019-05-15T01:46:28.368Z,72.56
2019-05-15T01:47:28.092Z,72.70
2019-05-15T01:48:28.153Z,72.77
2019-05-15T01:49:27.928Z,72.56
2019-05-15T01:50:25.992Z,72.91
2019-05-15T01:51:28.402Z,73.53
2019-05-15T01:52:27.907Z,73.22
2019-05-15T01:53:26.005Z,73.43
2019-05-15T01:54:25.978Z,73.01
2019-05-15T01:55:28.267Z,72.18
2019-05-15T01:56:25.934Z,72.36
2019-05-15T01:57:25.921Z,71.42
2019-05-15T01:58:25.931Z,71.94
2019-05-15T01:59:28.226Z,70.87
2019-05-15T02:00:28.109Z,70.39
2019-05-15T02:01:28.188Z,70.36
2019-05-15T02:02:27.923Z,69.84
2019-05-15T02:03:25.854Z,69.42
2019-05-15T02:04:25.837Z,69.39
2019-05-15T02:05:28.145Z,68.87
2019-05-15T02:06:28.324Z,69.08
2019-05-15T02:07:27.975Z,69.29
2019-05-15T02:08:28.243Z,69.08
2019-05-15T02:09:27.966Z,69.18
2019-05-15T02:10:25.769Z,69.18
2019-05-15T02:11:25.763Z,69.08
2019-05-15T02:12:25.735Z,69.08
2019-05-15T02:13:28.078Z,69.18
2019-05-15T02:14:28.312Z,69.60
2019-05-15T02:15:25.710Z,69.49
2019-05-15T02:16:25.693Z,69.08
2019-05-15T02:17:25.703Z,68.87
2019-05-15T02:18:25.679Z,69.18
2019-05-15T02:19:25.689Z,69.49
2019-05-15T02:20:25.676Z,69.32
2019-05-15T02:21:25.637Z,69.60
2019-05-15T02:22:25.662Z,69.63
2019-05-15T02:23:27.906Z,70.15
2019-05-15T02:24:28.202Z,69.94
2019-05-15T02:25:27.903Z,69.63
2019-05-15T02:26:27.994Z,70.25
2019-05-15T02:27:25.566Z,70.36
2019-05-15T02:28:25.571Z,70.56
2019-05-15T02:29:25.564Z,71.63
2019-05-15T02:30:30.120Z,71.01
2019-05-15T02:31:29.772Z,71.53
2019-05-15T02:32:25.528Z,71.42
2019-05-15T02:33:25.520Z,71.42
2019-05-15T02:34:25.492Z,71.87
2019-05-15T02:35:25.509Z,72.39
2019-05-15T02:36:25.501Z,72.08
2019-05-15T02:37:25.487Z,71.97
2019-05-15T02:38:25.464Z,72.70
2019-05-15T02:39:25.443Z,72.84
2019-05-15T02:40:25.423Z,72.49
2019-05-15T02:41:25.450Z,72.18
2019-05-15T02:42:28.736Z,72.18
2019-05-15T02:43:25.402Z,72.91
2019-05-15T02:44:25.381Z,72.84
2019-05-15T02:45:25.371Z,72.74
2019-05-15T02:46:25.366Z,73.05
2019-05-15T02:47:28.861Z,72.74
2019-05-15T02:48:28.702Z,72.84
2019-05-15T02:49:25.322Z,72.70
2019-05-15T02:50:25.319Z,72.28
2019-05-15T02:51:25.315Z,71.77
2019-05-15T02:52:25.298Z,71.91
2019-05-15T02:53:25.309Z,71.87
2019-05-15T02:54:25.270Z,72.18
2019-05-15T02:55:25.275Z,72.91
2019-05-15T02:56:25.252Z,72.22
2019-05-15T02:57:25.254Z,72.28
2019-05-15T02:58:25.217Z,71.56
2019-05-15T02:59:25.244Z,71.77
2019-05-15T03:00:37.734Z,71.42
2019-05-15T03:01:28.579Z,71.01
2019-05-15T03:02:25.185Z,69.66
2019-05-15T03:03:25.174Z,70.36
2019-05-15T03:04:25.155Z,70.04
2019-05-15T03:05:25.169Z,69.66
2019-05-15T03:06:25.139Z,70.07
2019-05-15T03:07:25.148Z,70.07
2019-05-15T03:08:25.105Z,69.66
2019-05-15T03:09:25.096Z,70.39
2019-05-15T03:10:25.094Z,70.18
2019-05-15T03:11:25.123Z,70.28
2019-05-15T03:12:25.068Z,70.28
2019-05-15T03:13:25.088Z,70.42
2019-05-15T03:14:25.048Z,70.49
2019-05-15T03:15:25.059Z,70.39
2019-05-15T03:16:25.037Z,70.28
2019-05-15T03:17:25.035Z,70.39
2019-05-15T03:18:24.994Z,70.59
2019-05-15T03:19:24.994Z,70.90
2019-05-15T03:20:25.004Z,70.52
2019-05-15T03:21:24.963Z,70.42
2019-05-15T03:22:25.004Z,70.07
2019-05-15T03:23:24.979Z,70.28
2019-05-15T03:24:24.961Z,70.28
2019-05-15T03:25:24.938Z,70.28
2019-05-15T03:26:24.913Z,69.56
2019-05-15T03:27:24.894Z,70.18
2019-05-15T03:28:24.878Z,70.04
2019-05-15T03:29:24.921Z,69.97
2019-05-15T03:30:24.879Z,69.63
2019-05-15T03:31:47.766Z,69.21
2019-05-15T03:32:35.824Z,69.21
2019-05-15T03:33:30.047Z,69.21
2019-05-15T03:34:30.978Z,69.21
2019-05-15T03:35:25.807Z,69.11
2019-05-15T03:36:24.914Z,69.84
2019-05-15T03:37:24.790Z,69.42
2019-05-15T03:38:24.795Z,69.21
2019-05-15T03:39:24.780Z,69.11
2019-05-15T03:40:24.773Z,69.11
2019-05-15T03:41:24.754Z,69.21
2019-05-15T03:42:24.724Z,69.21
2019-05-15T03:43:24.732Z,69.11
2019-05-15T03:44:24.705Z,69.73
2019-05-15T03:45:24.713Z,70.04
2019-05-15T03:46:24.695Z,69.87
2019-05-15T03:47:24.669Z,69.56
2019-05-15T03:48:24.700Z,69.97
2019-05-15T03:49:24.670Z,69.97
2019-05-15T03:50:24.642Z,69.56
2019-05-15T03:51:24.637Z,69.45
2019-05-15T03:52:24.643Z,69.42
2019-05-15T03:53:24.605Z,69.42
2019-05-15T03:54:24.604Z,69.63
2019-05-15T03:55:24.576Z,69.21
2019-05-15T03:56:24.568Z,69.32
2019-05-15T03:57:24.566Z,69.32
2019-05-15T03:58:24.569Z,69.42
2019-05-15T03:59:24.538Z,69.53
2019-05-15T04:00:24.537Z,69.42
2019-05-15T04:01:33.579Z,69.76
2019-05-15T04:02:28.626Z,69.76
2019-05-15T04:03:24.492Z,70.07
2019-05-15T04:04:24.505Z,69.56
2019-05-15T04:05:24.493Z,69.66
2019-05-15T04:06:24.459Z,69.87
2019-05-15T04:07:24.454Z,70.28
2019-05-15T04:08:24.460Z,70.07
2019-05-15T04:09:24.425Z,70.18
2019-05-15T04:10:24.440Z,70.18
2019-05-15T04:11:24.398Z,70.90
2019-05-15T04:12:24.386Z,71.25
2019-05-15T04:13:24.392Z,71.01
2019-05-15T04:14:24.371Z,70.70
2019-05-15T04:15:24.355Z,70.42
2019-05-15T04:16:24.398Z,70.39
2019-05-15T04:17:24.325Z,70.07
2019-05-15T04:18:24.323Z,69.66
2019-05-15T04:19:24.315Z,69.76
2019-05-15T04:20:24.301Z,70.18
2019-05-15T04:21:24.297Z,69.94
2019-05-15T04:22:24.294Z,70.04
2019-05-15T04:23:24.280Z,69.53
2019-05-15T04:24:24.254Z,70.15
2019-05-15T04:25:24.244Z,69.73
2019-05-15T04:26:24.242Z,67.94
2019-05-15T04:27:24.244Z,67.63
2019-05-15T04:28:24.235Z,67.70
2019-05-15T04:29:24.204Z,67.88
2019-05-15T04:30:24.188Z,67.15
2019-05-15T04:31:24.172Z,66.53
2019-05-15T04:32:24.167Z,65.99
2019-05-15T04:33:24.180Z,65.99
2019-05-15T04:34:24.151Z,65.54
2019-05-15T04:35:24.137Z,65.64
2019-05-15T04:36:24.120Z,64.86
2019-05-15T04:37:24.105Z,62.92
2019-05-15T04:38:24.118Z,59.91
2019-05-15T04:39:24.081Z,58.01
2019-05-15T04:40:24.093Z,55.90
2019-05-15T04:41:24.070Z,55.05
2019-05-15T04:42:24.055Z,54.61
2019-05-15T04:43:24.036Z,54.72
2019-05-15T04:44:24.023Z,54.92
2019-05-15T04:45:24.021Z,54.64
2019-05-15T04:46:24.048Z,53.92
2019-05-15T04:47:24.000Z,53.74
2019-05-15T04:48:23.984Z,52.87
2019-05-15T04:49:23.973Z,52.23
2019-05-15T04:50:23.966Z,50.78
2019-05-15T04:51:23.972Z,52.26
2019-05-15T04:52:23.984Z,50.50
2019-05-15T04:53:23.927Z,49.25
2019-05-15T04:54:23.944Z,48.02
2019-05-15T04:55:23.917Z,47.98
2019-05-15T04:56:23.912Z,46.86
2019-05-15T04:57:23.892Z,46.34
2019-05-15T04:58:23.885Z,46.81
2019-05-15T04:59:23.870Z,46.30
2019-05-15T05:00:23.860Z,45.26
2019-05-15T05:01:23.865Z,44.83
2019-05-15T05:02:27.205Z,45.24
2019-05-15T05:03:24.851Z,44.63
2019-05-15T05:04:23.813Z,44.81
2019-05-15T05:05:23.800Z,44.40
2019-05-15T05:06:23.786Z,44.83
2019-05-15T05:07:23.778Z,44.93
2019-05-15T05:08:23.771Z,45.20
2019-05-15T05:09:23.782Z,47.30
2019-05-15T05:10:23.753Z,44.83
2019-05-15T05:11:24.170Z,44.69
2019-05-15T05:12:23.724Z,43.84
2019-05-15T05:13:23.709Z,43.61
2019-05-15T05:14:23.716Z,44.02
2019-05-15T05:15:23.709Z,43.51
2019-05-15T05:16:23.761Z,42.17
2019-05-15T05:17:23.662Z,42.33
2019-05-15T05:18:23.657Z,41.93
2019-05-15T05:19:23.663Z,43.32
2019-05-15T05:20:23.625Z,42.63
2019-05-15T05:21:23.637Z,42.02
2019-05-15T05:22:23.601Z,40.18
2019-05-15T05:23:23.593Z,42.29
2019-05-15T05:24:23.580Z,42.23
2019-05-15T05:25:23.572Z,41.93
2019-05-15T05:26:23.560Z,40.77
2019-05-15T05:27:23.571Z,41.42
2019-05-15T05:28:23.546Z,42.63
2019-05-15T05:29:23.524Z,41.21
2019-05-15T05:30:23.514Z,40.26
2019-05-15T05:31:23.506Z,40.89
2019-05-15T05:32:34.364Z,40.09
2019-05-15T05:33:24.506Z,40.48
2019-05-15T05:34:23.475Z,40.99
2019-05-15T05:35:23.454Z,40.16
2019-05-15T05:36:23.441Z,40.79
2019-05-15T05:37:23.430Z,41.42
2019-05-15T05:38:23.419Z,41.01
2019-05-15T05:39:23.432Z,41.11
2019-05-15T05:40:23.409Z,42.21
2019-05-15T05:41:23.386Z,40.48
2019-05-15T05:42:23.377Z,40.16
2019-05-15T05:43:23.420Z,40.55
2019-05-15T05:44:23.361Z,39.43
2019-05-15T05:45:23.383Z,40.91
2019-05-15T05:46:23.335Z,40.24
2019-05-15T05:47:23.344Z,42.11
2019-05-15T05:48:23.321Z,41.05
2019-05-15T05:49:23.304Z,40.16
2019-05-15T05:50:23.352Z,40.04
2019-05-15T05:51:23.302Z,39.62
2019-05-15T05:52:23.308Z,39.09
2019-05-15T05:53:23.261Z,40.29
2019-05-15T05:54:23.249Z,41.93
2019-05-15T05:55:23.238Z,39.09
2019-05-15T05:56:23.226Z,40.04
2019-05-15T05:57:23.240Z,41.03
2019-05-15T05:58:23.230Z,41.80
2019-05-15T05:59:23.186Z,39.14
2019-05-15T06:00:23.179Z,40.81
2019-05-15T06:01:23.221Z,39.11
2019-05-15T06:02:23.160Z,41.36
2019-05-15T06:03:23.170Z,42.21
2019-05-15T06:04:23.144Z,41.84
2019-05-15T06:05:23.120Z,41.19
2019-05-15T06:06:23.112Z,42.82
2019-05-15T06:07:23.123Z,40.75
2019-05-15T06:08:23.086Z,39.29
2019-05-15T06:09:23.109Z,40.39
2019-05-15T06:10:23.076Z,39.07
2019-05-15T06:11:23.057Z,39.26
2019-05-15T06:12:23.049Z,37.12
2019-05-15T06:13:23.043Z,37.32
2019-05-15T06:14:23.040Z,37.92
2019-05-15T06:15:23.049Z,37.21
2019-05-15T06:16:23.008Z,37.42
2019-05-15T06:17:22.992Z,38.75
2019-05-15T06:18:22.980Z,38.26
2019-05-15T06:19:22.969Z,36.83
2019-05-15T06:20:22.959Z,38.65
2019-05-15T06:21:23.401Z,36.39
2019-05-15T06:22:22.942Z,38.09
2019-05-15T06:23:25.398Z,36.98
2019-05-15T06:24:22.914Z,36.47
2019-05-15T06:25:22.924Z,36.37
2019-05-15T06:26:22.900Z,37.08
2019-05-15T06:27:22.898Z,38.37
2019-05-15T06:28:22.892Z,35.95
2019-05-15T06:29:22.857Z,36.22
2019-05-15T06:30:27.496Z,36.66
2019-05-15T06:31:23.835Z,36.68
2019-05-15T06:32:22.834Z,37.61
2019-05-15T06:33:22.827Z,37.47
2019-05-15T06:34:22.809Z,35.82
2019-05-15T06:35:22.843Z,36.66
2019-05-15T06:36:22.783Z,36.05
2019-05-15T06:37:22.775Z,36.47
2019-05-15T06:38:22.779Z,37.32
2019-05-15T06:39:22.774Z,36.87
2019-05-15T06:40:22.738Z,36.02
2019-05-15T06:41:22.733Z,36.71
2019-05-15T06:42:22.717Z,36.19
2019-05-15T06:43:22.723Z,37.40
2019-05-15T06:44:22.694Z,34.33
2019-05-15T06:49:08.522Z,34.23
2019-05-15T06:49:51.564Z,34.06
2019-05-15T06:50:51.561Z,35.66
2019-05-15T06:51:51.547Z,33.29
2019-05-15T06:52:51.550Z,32.87
2019-05-15T06:53:51.523Z,34.28
2019-05-15T06:54:51.526Z,34.57
2019-05-15T06:55:51.504Z,35.31
2019-05-15T06:56:51.491Z,33.72
2019-05-15T06:57:51.479Z,34.45
2019-05-15T06:58:51.480Z,34.25
2019-05-15T06:59:51.462Z,34.62
2019-05-15T07:00:51.465Z,35.70
2019-05-15T07:01:51.434Z,33.06
2019-05-15T07:02:51.426Z,33.47
2019-05-15T07:03:51.422Z,33.48
2019-05-15T07:04:51.462Z,34.32
2019-05-15T07:05:51.412Z,34.28
2019-05-15T07:06:51.445Z,33.70
2019-05-15T07:07:51.398Z,33.39
2019-05-15T07:08:51.404Z,33.95
2019-05-15T07:09:51.385Z,33.63
2019-05-15T07:10:51.357Z,34.05
2019-05-15T07:11:51.331Z,34.12
2019-05-15T07:12:51.642Z,33.92
2019-05-15T07:13:51.337Z,33.87
2019-05-15T07:14:51.301Z,31.35
2019-05-15T07:15:51.296Z,31.32
2019-05-15T07:16:51.311Z,31.23
2019-05-15T07:17:51.312Z,30.15
2019-05-15T07:18:51.293Z,30.98
2019-05-15T07:19:51.264Z,30.67
2019-05-15T07:20:51.259Z,31.70
2019-05-15T07:21:51.247Z,31.38
2019-05-15T07:22:51.233Z,31.49
2019-05-15T07:23:51.218Z,31.10
2019-05-15T07:24:51.257Z,31.87
2019-05-15T07:25:51.184Z,31.25
2019-05-15T07:26:51.176Z,30.93
2019-05-15T07:27:51.166Z,30.90
2019-05-15T07:28:51.162Z,29.80
2019-05-15T07:29:51.144Z,30.32
2019-05-15T07:30:51.175Z,31.12
2019-05-15T07:31:51.133Z,30.11
2019-05-15T07:32:51.114Z,30.13
2019-05-15T07:33:51.106Z,30.44
2019-05-15T07:34:51.097Z,29.33
2019-05-15T07:35:51.090Z,31.06
2019-05-15T07:36:51.108Z,31.15
2019-05-15T07:37:51.068Z,30.51
2019-05-15T07:38:51.047Z,31.20
2019-05-15T07:39:51.035Z,30.93
2019-05-15T07:40:59.309Z,29.69
2019-05-15T07:41:52.043Z,28.87
2019-05-15T07:42:51.011Z,28.75
2019-05-15T07:43:51.005Z,27.63
2019-05-15T07:44:50.999Z,27.86
2019-05-15T07:45:54.987Z,29.41
2019-05-15T07:46:50.981Z,30.51
2019-05-15T07:47:50.974Z,29.60
2019-05-15T07:48:50.937Z,29.30
2019-05-15T07:49:50.950Z,29.44
2019-05-15T07:50:50.923Z,30.52
2019-05-15T07:51:50.914Z,29.49
2019-05-15T07:52:50.901Z,29.83
2019-05-15T07:53:50.904Z,29.79
2019-05-15T07:54:50.906Z,29.59
2019-05-15T07:55:51.467Z,30.91
2019-05-15T07:56:50.862Z,30.24
2019-05-15T07:57:50.856Z,29.63
2019-05-15T07:58:52.563Z,29.63
2019-05-15T07:59:50.847Z,30.41
2019-05-15T08:00:50.829Z,29.88
2019-05-15T08:01:50.822Z,29.57
2019-05-15T08:02:50.840Z,29.55
2019-05-15T08:03:59.055Z,26.73
2019-05-15T08:04:51.843Z,27.57
2019-05-15T08:05:58.697Z,28.19
2019-05-15T08:06:51.779Z,26.98
2019-05-15T08:07:50.738Z,27.76
2019-05-15T08:08:50.780Z,27.63
2019-05-15T08:09:50.754Z,28.45
2019-05-15T08:10:50.744Z,29.46
2019-05-15T08:11:50.700Z,29.33
2019-05-15T08:12:50.689Z,28.64
2019-05-15T08:13:50.680Z,31.03
2019-05-15T08:14:51.088Z,28.81
2019-05-15T08:15:50.672Z,28.40
2019-05-15T08:16:50.671Z,26.28
2019-05-15T08:18:03.283Z,27.92
2019-05-15T08:18:51.629Z,27.39
2019-05-15T08:19:50.621Z,26.92
2019-05-15T08:20:50.651Z,28.84
2019-05-15T08:21:51.894Z,27.61
2019-05-15T08:22:50.630Z,26.17
2019-05-15T08:23:50.577Z,26.07
2019-05-15T08:24:50.587Z,25.95
2019-05-15T08:25:50.558Z,27.25
2019-05-15T08:26:50.562Z,25.35
2019-05-15T08:27:50.553Z,25.07
2019-05-15T08:28:50.546Z,26.37
2019-05-15T08:29:50.519Z,22.76
2019-05-15T08:30:50.525Z,24.38
2019-05-15T08:31:50.530Z,26.28
2019-05-15T08:32:51.696Z,24.05
2019-05-15T08:33:50.474Z,24.68
2019-05-15T08:34:50.523Z,25.45
2019-05-15T08:35:51.917Z,24.57
2019-05-15T08:36:50.447Z,23.55
2019-05-15T08:37:50.437Z,23.23
2019-05-15T08:38:50.425Z,23.54
2019-05-15T08:39:50.411Z,22.22
2019-05-15T08:40:50.424Z,23.25
2019-05-15T08:41:50.396Z,23.77
2019-05-15T08:42:56.902Z,24.46
2019-05-15T08:43:51.414Z,22.53
2019-05-15T08:44:50.374Z,22.83
2019-05-15T08:45:50.377Z,22.74
2019-05-15T08:46:50.363Z,23.92
2019-05-15T08:47:50.332Z,21.43
2019-05-15T08:48:50.358Z,23.24
2019-05-15T08:49:50.317Z,22.74
2019-05-15T08:50:50.308Z,21.11
2019-05-15T08:51:50.341Z,21.01
2019-05-15T08:52:50.354Z,23.30
2019-05-15T08:53:50.329Z,22.20
2019-05-15T08:54:50.280Z,21.11
2019-05-15T08:55:50.338Z,21.20
2019-05-15T08:56:50.325Z,25.38
2019-05-15T08:57:55.628Z,20.56
2019-05-15T08:58:51.287Z,20.40
2019-05-15T08:59:50.240Z,20.77
2019-05-15T09:00:52.398Z,21.68
2019-05-15T09:01:50.217Z,21.87
2019-05-15T09:02:50.214Z,22.16
2019-05-15T09:03:50.224Z,22.72
2019-05-15T09:04:50.262Z,19.93
2019-05-15T09:05:50.155Z,20.95
2019-05-15T09:06:50.144Z,20.57
2019-05-15T09:07:50.160Z,20.67
2019-05-15T09:08:50.135Z,20.75
2019-05-15T09:09:50.113Z,21.47
2019-05-15T09:10:50.975Z,22.88
2019-05-15T09:11:50.096Z,21.45
2019-05-15T09:12:50.419Z,22.96
2019-05-15T09:13:53.707Z,20.76
2019-05-15T09:14:50.077Z,21.75
2019-05-15T09:15:50.083Z,21.04
2019-05-15T09:16:50.077Z,19.74
2019-05-15T09:17:50.075Z,19.14
2019-05-15T09:18:50.022Z,19.95
2019-05-15T09:19:50.011Z,21.12
2019-05-15T09:20:50.015Z,21.32
2019-05-15T09:21:50.016Z,22.89
2019-05-15T09:22:50.477Z,21.09
2019-05-15T09:23:50.276Z,19.30
2019-05-15T09:24:49.964Z,19.84
2019-05-15T09:25:50.078Z,20.33
2019-05-15T09:26:50.002Z,20.25
2019-05-15T09:27:50.530Z,20.86
2019-05-15T09:28:49.926Z,19.45
2019-05-15T09:29:49.929Z,19.85
2019-05-15T09:30:49.911Z,20.34
2019-05-15T09:31:49.897Z,20.05
2019-05-15T09:32:49.892Z,20.25
2019-05-15T09:33:49.943Z,21.06
2019-05-15T09:34:54.833Z,23.06
2019-05-15T09:35:50.856Z,22.13
2019-05-15T09:36:49.859Z,20.31
2019-05-15T09:37:49.847Z,20.31
2019-05-15T09:38:49.863Z,21.91
2019-05-15T09:39:49.859Z,20.40
2019-05-15T09:40:50.902Z,23.10
2019-05-15T09:41:49.822Z,21.20
2019-05-15T09:42:49.794Z,18.70
2019-05-15T09:43:49.787Z,19.32
2019-05-15T09:44:49.775Z,21.06
2019-05-15T09:45:49.789Z,21.66
2019-05-15T09:46:49.758Z,21.51
2019-05-15T09:47:49.780Z,21.12
2019-05-15T09:48:51.800Z,20.75
2019-05-15T09:49:49.725Z,22.28
2019-05-15T09:50:49.757Z,22.99
2019-05-15T09:51:49.739Z,23.58
2019-05-15T09:52:50.313Z,25.20
2019-05-15T09:53:49.690Z,24.48
2019-05-15T09:54:49.684Z,24.55
2019-05-15T09:55:49.975Z,22.72
2019-05-15T09:56:49.656Z,24.01
2019-05-15T09:57:49.682Z,21.63
2019-05-15T09:58:49.644Z,22.55
2019-05-15T09:59:49.630Z,22.74
2019-05-15T10:00:51.907Z,22.91
2019-05-15T10:01:49.617Z,23.13
2019-05-15T10:02:49.601Z,22.04
2019-05-15T10:03:49.625Z,23.28
2019-05-15T10:05:05.126Z,24.37
2019-05-15T10:05:50.576Z,23.06
2019-05-15T10:06:49.563Z,23.14
2019-05-15T10:07:49.556Z,23.54
2019-05-15T10:08:49.554Z,22.44
2019-05-15T10:09:52.313Z,23.72
2019-05-15T10:10:49.541Z,23.30
2019-05-15T10:11:49.523Z,21.98
2019-05-15T10:12:49.642Z,21.59
2019-05-15T10:13:49.505Z,22.71
2019-05-15T10:14:49.579Z,23.13
2019-05-15T10:15:51.023Z,21.12
2019-05-15T10:16:49.482Z,23.53
2019-05-15T10:17:51.112Z,22.22
2019-05-15T10:18:50.963Z,27.24
2019-05-15T10:19:49.460Z,24.41
2019-05-15T10:20:49.431Z,23.02
2019-05-15T10:21:52.883Z,24.12
2019-05-15T10:22:49.461Z,23.22
2019-05-15T10:23:49.645Z,22.92
2019-05-15T10:24:50.919Z,23.11
2019-05-15T10:25:49.384Z,24.18
2019-05-15T10:26:49.383Z,22.10
2019-05-15T10:27:49.383Z,22.20
2019-05-15T10:28:49.711Z,22.71
2019-05-15T10:29:49.393Z,25.79
2019-05-15T10:30:50.056Z,22.58
2019-05-15T10:31:49.570Z,24.05
2019-05-15T10:32:49.447Z,22.66
2019-05-15T10:33:49.549Z,21.36
2019-05-15T10:34:49.400Z,22.69
2019-05-15T10:35:49.470Z,21.19
2019-05-15T10:36:49.642Z,21.40
2019-05-15T10:37:49.346Z,22.39
2019-05-15T10:38:49.322Z,24.80
2019-05-15T10:39:52.608Z,24.70
2019-05-15T10:41:50.234Z,21.51
2019-05-15T10:42:49.713Z,24.35
2019-05-15T10:43:56.261Z,23.81
2019-05-15T10:44:50.238Z,23.81
2019-05-15T10:45:50.255Z,24.89
2019-05-15T10:46:49.215Z,21.45
2019-05-15T10:47:49.768Z,21.75
2019-05-15T10:48:49.586Z,23.96
2019-05-15T10:49:49.160Z,21.25
2019-05-15T10:50:49.216Z,22.15
2019-05-15T10:51:49.181Z,22.06
2019-05-15T10:52:49.130Z,21.48
2019-05-15T10:53:49.140Z,23.97
2019-05-15T10:54:49.106Z,22.27
2019-05-15T10:55:49.699Z,22.18
2019-05-15T10:56:49.164Z,25.87
2019-05-15T10:57:49.118Z,21.84
2019-05-15T10:58:50.584Z,22.66
2019-05-15T10:59:49.059Z,22.69
2019-05-15T11:00:49.691Z,23.99
2019-05-15T11:01:49.069Z,26.16
2019-05-15T11:02:49.159Z,22.43
2019-05-15T11:03:49.727Z,24.88
2019-05-15T11:04:49.011Z,21.37
2019-05-15T11:05:49.352Z,21.58
2019-05-15T11:06:49.224Z,21.58
2019-05-15T11:07:48.991Z,21.28
2019-05-15T11:08:51.571Z,21.08
2019-05-15T11:09:49.167Z,22.79
2019-05-15T11:10:49.682Z,23.13
2019-05-15T11:11:51.679Z,22.32
2019-05-15T11:12:49.043Z,24.73
2019-05-15T11:13:48.937Z,22.21
2019-05-15T11:14:48.957Z,24.40
2019-05-15T11:15:49.418Z,23.99
2019-05-15T11:16:49.004Z,25.98
2019-05-15T11:17:49.310Z,24.76
2019-05-15T11:18:48.904Z,21.75
2019-05-15T11:19:49.946Z,23.07
2019-05-15T11:20:49.089Z,21.26
2019-05-15T11:21:48.852Z,21.26
2019-05-15T11:22:49.947Z,24.70
2019-05-15T11:23:49.353Z,24.99
2019-05-15T11:24:52.475Z,22.68
2019-05-15T11:25:49.014Z,22.48
2019-05-15T11:26:49.980Z,22.48
2019-05-15T11:27:48.858Z,23.18
2019-05-15T11:28:49.713Z,21.59
2019-05-15T11:29:48.777Z,21.37
2019-05-15T11:30:49.277Z,23.27
2019-05-15T11:31:48.886Z,21.08
2019-05-15T11:32:48.932Z,21.71
2019-05-15T11:33:49.274Z,24.05
2019-05-15T11:34:49.355Z,27.29
2019-05-15T11:36:01.119Z,23.93
2019-05-15T11:36:49.705Z,26.72
2019-05-15T11:37:55.861Z,23.90
2019-05-15T11:38:49.722Z,24.68
2019-05-15T11:39:48.787Z,22.69
2019-05-15T11:40:48.664Z,22.52
2019-05-15T11:41:49.369Z,21.22
2019-05-15T11:42:48.873Z,22.32
2019-05-15T11:43:49.497Z,23.03
2019-05-15T11:44:48.719Z,23.14
2019-05-15T11:45:48.634Z,23.85
2019-05-15T11:46:49.617Z,22.98
2019-05-15T11:47:48.594Z,25.21
2019-05-15T11:48:49.776Z,26.33
2019-05-15T11:49:48.572Z,23.92
2019-05-15T11:50:48.626Z,25.76
2019-05-15T11:51:49.236Z,26.27
2019-05-15T11:52:48.564Z,24.27
2019-05-15T11:53:49.185Z,26.50
2019-05-15T11:54:49.337Z,25.31
2019-05-15T11:55:48.522Z,27.33
2019-05-15T11:56:49.143Z,27.84
2019-05-15T11:57:51.533Z,26.71
2019-05-15T11:58:49.476Z,27.32
2019-05-15T11:59:55.125Z,25.31
2019-05-15T12:00:49.474Z,25.21
2019-05-15T12:01:48.884Z,28.05
2019-05-15T12:02:48.504Z,27.65
2019-05-15T12:03:48.428Z,29.67
2019-05-15T12:04:48.443Z,28.25
2019-05-15T12:05:48.445Z,26.53
2019-05-15T12:06:58.778Z,26.75
2019-05-15T12:07:49.395Z,25.73
2019-05-15T12:08:48.418Z,24.72
2019-05-15T12:09:48.397Z,26.66
2019-05-15T12:10:48.351Z,25.53
2019-05-15T12:11:48.332Z,26.34
2019-05-15T12:12:49.665Z,26.54
2019-05-15T12:13:48.368Z,25.13
2019-05-15T12:14:49.457Z,23.71
2019-05-15T12:15:48.636Z,24.13
2019-05-15T12:17:02.336Z,23.72
2019-05-15T12:17:49.283Z,27.37
2019-05-15T12:18:48.450Z,26.56
2019-05-15T12:20:49.270Z,26.97
2019-05-15T12:21:49.107Z,26.86
2019-05-15T12:22:48.688Z,27.47
2019-05-15T12:23:48.805Z,27.76
2019-05-15T12:24:49.946Z,26.86
2019-05-15T12:25:48.970Z,28.69
2019-05-15T12:26:48.949Z,27.25
2019-05-15T12:28:49.214Z,28.18
2019-05-15T12:29:49.128Z,29.70
2019-05-15T12:30:49.178Z,28.49
2019-05-15T12:31:49.603Z,28.57
2019-05-15T12:32:49.274Z,28.49
2019-05-15T12:33:48.944Z,29.60
2019-05-15T12:34:49.437Z,29.39
2019-05-15T12:35:50.749Z,28.89
2019-05-15T12:36:56.688Z,27.87
2019-05-15T12:37:49.099Z,27.56
2019-05-15T12:38:50.305Z,25.53
2019-05-15T12:39:49.313Z,24.53
2019-05-15T12:59:48.795Z,28.28
2019-05-15T13:00:48.957Z,29.11
2019-05-15T13:01:47.836Z,28.38
2019-05-15T13:02:49.207Z,29.92
2019-05-15T13:03:48.636Z,30.22
2019-05-15T13:04:47.732Z,30.82
2019-05-15T13:05:48.740Z,31.32
2019-05-15T13:07:10.112Z,30.70
2019-05-15T13:07:48.336Z,31.02
2019-05-15T13:08:48.879Z,30.41
2019-05-15T13:09:48.682Z,30.70
2019-05-15T13:10:48.766Z,30.60
2019-05-15T13:11:48.495Z,29.79
2019-05-15T13:12:59.608Z,29.89
2019-05-15T13:13:48.652Z,29.89
2019-05-15T13:14:48.395Z,31.21
2019-05-15T13:15:48.286Z,29.99
2019-05-15T13:16:48.025Z,29.38
2019-05-15T13:17:52.693Z,30.09